createdAt,value
2023-02-07T00:00:01.012Z,-0.2
2023-02-07T00:01:10.278Z,-0.3
2023-02-07T00:02:18.390Z,-0.3
2023-02-07T00:03:26.587Z,-0.3
2023-02-07T00:04:35.746Z,-0.4
2023-02-07T00:05:44.921Z,-0.2
2023-02-07T00:06:54.118Z,-0.2
2023-02-07T00:08:03.262Z,-0.2
2023-02-07T00:09:12.454Z,-0.2
2023-02-07T00:10:21.626Z,-0.2
2023-02-07T00:11:30.791Z,-0.2
2023-02-07T00:12:39.958Z,-0.2
2023-02-07T00:13:49.135Z,-0.1
2023-02-07T00:14:58.309Z,0
2023-02-07T00:16:07.482Z,0
2023-02-07T00:17:16.653Z,0
2023-02-07T00:18:24.849Z,0.1
2023-02-07T00:19:34.021Z,0.1
2023-02-07T00:20:43.191Z,0.2
2023-02-07T00:21:52.370Z,0.1
2023-02-07T00:23:01.548Z,0
2023-02-07T00:24:10.715Z,-0.1
2023-02-07T00:25:19.884Z,0
2023-02-07T00:26:28.091Z,0
2023-02-07T00:27:36.289Z,0
2023-02-07T00:28:44.509Z,0
2023-02-07T00:29:52.659Z,0
2023-02-07T00:31:01.834Z,0
2023-02-07T00:32:10.998Z,-0.1
2023-02-07T00:33:20.173Z,-0.1
2023-02-07T00:34:29.345Z,-0.2
2023-02-07T00:35:38.528Z,-0.2
2023-02-07T00:36:47.698Z,-0.2
2023-02-07T00:37:56.875Z,-0.1
2023-02-07T00:39:06.039Z,-0.2
2023-02-07T00:40:15.228Z,0
2023-02-07T00:41:24.393Z,0.1
2023-02-07T00:42:33.591Z,0
2023-02-07T00:43:42.742Z,0
2023-02-07T00:44:50.947Z,-0.1
2023-02-07T00:46:00.101Z,-0.2
2023-02-07T00:47:09.270Z,-0.2
2023-02-07T00:48:18.440Z,-0.2
2023-02-07T00:49:27.621Z,-0.2
2023-02-07T00:50:36.785Z,-0.2
2023-02-07T00:51:45.961Z,-0.2
2023-02-07T00:52:54.150Z,-0.2
2023-02-07T00:54:02.355Z,-0.1
2023-02-07T00:55:11.521Z,-0.1
2023-02-07T00:56:20.693Z,-0.1
2023-02-07T00:57:29.872Z,-0.2
2023-02-07T00:58:39.049Z,-0.2
2023-02-07T00:59:48.228Z,-0.3
2023-02-07T01:00:57.412Z,-0.2
2023-02-07T01:02:06.564Z,-0.3
2023-02-07T01:03:15.742Z,-0.3
2023-02-07T01:04:25.111Z,-0.3
2023-02-07T01:05:34.116Z,-0.4
2023-02-07T01:06:43.268Z,-0.4
2023-02-07T01:07:52.440Z,-0.4
2023-02-07T01:09:00.622Z,-0.5
2023-02-07T01:10:09.797Z,-0.5
2023-02-07T01:11:18.971Z,-0.5
2023-02-07T01:12:28.146Z,-0.6
2023-02-07T01:13:37.314Z,-0.6
2023-02-07T01:14:46.491Z,-0.6
2023-02-07T01:15:55.670Z,-0.6
2023-02-07T01:17:03.856Z,-0.6
2023-02-07T01:18:12.056Z,-0.7
2023-02-07T01:19:20.253Z,-0.7
2023-02-07T01:20:28.435Z,-0.7
2023-02-07T01:21:36.626Z,-0.7
2023-02-07T01:22:44.823Z,-0.7
2023-02-07T01:23:53.988Z,-0.5
2023-02-07T01:25:03.188Z,-0.5
2023-02-07T01:26:12.341Z,-0.4
2023-02-07T01:27:21.512Z,-0.5
2023-02-07T01:28:30.687Z,-0.6
2023-02-07T01:29:39.857Z,-0.7
2023-02-07T01:30:49.028Z,-0.7
2023-02-07T01:31:57.220Z,-0.6
2023-02-07T01:33:06.406Z,-0.4
2023-02-07T01:34:15.574Z,-0.4
2023-02-07T01:35:24.750Z,-0.2
2023-02-07T01:36:33.920Z,-0.1
2023-02-07T01:37:43.092Z,-0.3
2023-02-07T01:38:52.264Z,-0.5
2023-02-07T01:40:01.446Z,-0.6
2023-02-07T01:41:10.611Z,-0.4
2023-02-07T01:42:19.781Z,-0.2
2023-02-07T01:43:28.960Z,0
2023-02-07T01:44:38.132Z,-0.1
2023-02-07T01:45:46.345Z,-0.1
2023-02-07T01:46:54.510Z,-0.3
2023-02-07T01:48:02.705Z,-0.6
2023-02-07T01:49:10.911Z,-0.7
2023-02-07T01:50:20.076Z,-0.8
2023-02-07T01:51:29.241Z,-0.8
2023-02-07T01:52:38.517Z,-0.6
2023-02-07T01:53:47.585Z,-0.4
2023-02-07T01:54:56.766Z,-0.3
2023-02-07T01:56:05.948Z,-0.4
2023-02-07T01:57:15.101Z,-0.5
2023-02-07T01:58:24.292Z,-0.5
2023-02-07T01:59:33.458Z,-0.6
2023-02-07T02:00:42.639Z,-0.7
2023-02-07T02:01:51.813Z,-0.8
2023-02-07T02:03:00.959Z,-0.8
2023-02-07T02:04:09.156Z,-0.9
2023-02-07T02:05:18.328Z,-0.9
2023-02-07T02:06:27.504Z,-0.9
2023-02-07T02:07:36.705Z,-1
2023-02-07T02:08:45.895Z,-0.9
2023-02-07T02:09:55.043Z,-0.9
2023-02-07T02:11:04.196Z,-0.9
2023-02-07T02:12:12.405Z,-1
2023-02-07T02:13:20.585Z,-1
2023-02-07T02:14:29.759Z,-1
2023-02-07T02:15:38.938Z,-1.1
2023-02-07T02:16:47.138Z,-1.1
2023-02-07T02:17:55.410Z,-0.9
2023-02-07T02:19:04.526Z,-1
2023-02-07T02:20:13.662Z,-1
2023-02-07T02:21:22.839Z,-1
2023-02-07T02:23:41.197Z,-1
2023-02-07T02:24:50.365Z,-1
2023-02-07T02:25:59.534Z,-1
2023-02-07T02:27:08.706Z,-1
2023-02-07T02:28:17.883Z,-1
2023-02-07T02:29:27.051Z,-1
2023-02-07T02:30:36.225Z,-1
2023-02-07T02:31:45.414Z,-1
2023-02-07T02:32:53.595Z,-1
2023-02-07T02:34:02.758Z,-1
2023-02-07T02:35:11.927Z,-1.1
2023-02-07T02:36:21.166Z,-1.1
2023-02-07T02:37:30.279Z,-1.2
2023-02-07T02:38:39.458Z,-1.2
2023-02-07T02:39:48.706Z,-1.2
2023-02-07T02:40:57.869Z,-1.1
2023-02-07T02:42:06.000Z,-1.1
2023-02-07T02:43:14.213Z,-1.2
2023-02-07T02:44:22.383Z,-1.2
2023-02-07T02:45:30.569Z,-1.2
2023-02-07T02:46:39.749Z,-1.1
2023-02-07T02:47:48.919Z,-1.1
2023-02-07T02:48:58.092Z,-1.2
2023-02-07T02:50:07.262Z,-1.2
2023-02-07T02:51:16.437Z,-1.2
2023-02-07T02:52:25.615Z,-1.2
2023-02-07T02:53:34.804Z,-1.2
2023-02-07T02:54:44.015Z,-1.3
2023-02-07T02:55:53.134Z,-1.2
2023-02-07T02:57:02.325Z,-1.3
2023-02-07T02:58:11.483Z,-1.2
2023-02-07T02:59:20.661Z,-1.3
2023-02-07T03:00:28.857Z,-1.4
2023-02-07T03:01:38.014Z,-1.4
2023-02-07T03:02:47.192Z,-1.4
2023-02-07T03:05:05.541Z,-1.3
2023-02-07T03:06:14.709Z,-1.3
2023-02-07T03:07:23.884Z,-1.3
2023-02-07T03:08:33.060Z,-1.3
2023-02-07T03:10:50.440Z,-1.4
2023-02-07T03:11:58.622Z,-1.4
2023-02-07T03:13:06.890Z,-1.4
2023-02-07T03:14:15.010Z,-1.4
2023-02-07T03:15:23.192Z,-1.4
2023-02-07T03:16:32.370Z,-1.4
2023-02-07T03:17:41.544Z,-1.3
2023-02-07T03:18:50.727Z,-1.4
2023-02-07T03:21:09.087Z,-1.3
2023-02-07T03:22:18.236Z,-1.3
2023-02-07T03:23:27.424Z,-1.3
2023-02-07T03:24:36.598Z,-1.2
2023-02-07T03:25:45.752Z,-1.1
2023-02-07T03:26:54.927Z,-0.9
2023-02-07T03:28:04.102Z,-0.9
2023-02-07T03:29:13.269Z,-1
2023-02-07T03:30:21.469Z,-1.1
2023-02-07T03:31:30.645Z,-1
2023-02-07T03:32:39.812Z,-0.9
2023-02-07T03:33:48.987Z,-0.9
2023-02-07T03:34:58.157Z,-0.9
2023-02-07T03:36:07.332Z,-0.8
2023-02-07T03:37:16.526Z,-0.9
2023-02-07T03:38:25.697Z,-0.8
2023-02-07T03:39:33.864Z,-1
2023-02-07T03:40:42.052Z,-0.9
2023-02-07T03:41:51.236Z,-0.8
2023-02-07T03:43:00.404Z,-0.7
2023-02-07T03:44:09.579Z,-0.5
2023-02-07T03:45:17.773Z,-0.7
2023-02-07T03:46:25.960Z,-0.8
2023-02-07T03:47:35.127Z,-0.7
2023-02-07T03:48:44.322Z,-0.6
2023-02-07T03:49:53.487Z,-0.5
2023-02-07T03:51:02.666Z,-0.4
2023-02-07T03:52:11.847Z,-0.4
2023-02-07T03:53:21.005Z,-0.2
2023-02-07T03:54:30.173Z,-0.2
2023-02-07T03:55:39.359Z,-0.4
2023-02-07T03:56:48.532Z,-0.3
2023-02-07T03:57:57.695Z,-0.3
2023-02-07T03:59:06.917Z,-0.5
2023-02-07T04:00:16.057Z,-0.2
2023-02-07T04:01:24.232Z,-0.2
2023-02-07T04:02:33.412Z,-0.1
2023-02-07T04:03:42.574Z,-0.5
2023-02-07T04:04:51.759Z,-0.6
2023-02-07T04:06:00.933Z,-0.4
2023-02-07T04:07:10.107Z,-0.6
2023-02-07T04:08:19.275Z,-0.7
2023-02-07T04:09:27.480Z,-0.8
2023-02-07T04:10:35.693Z,-0.8
2023-02-07T04:12:53.037Z,-0.6
2023-02-07T04:14:01.232Z,-0.6
2023-02-07T04:15:09.409Z,-0.7
2023-02-07T04:16:18.574Z,-0.6
2023-02-07T04:17:27.752Z,-0.4
2023-02-07T04:18:36.940Z,-0.4
2023-02-07T04:19:46.093Z,-0.3
2023-02-07T04:20:55.279Z,-0.6
2023-02-07T04:22:04.450Z,-0.6
2023-02-07T04:23:13.616Z,-0.2
2023-02-07T04:24:22.805Z,-0.2
2023-02-07T04:25:31.981Z,-0.2
2023-02-07T04:26:41.148Z,-0.3
2023-02-07T04:27:50.322Z,-0.4
2023-02-07T04:28:59.488Z,-0.4
2023-02-07T04:30:08.663Z,-0.5
2023-02-07T04:31:16.851Z,-0.5
2023-02-07T04:32:26.045Z,-0.6
2023-02-07T04:33:35.203Z,-0.7
2023-02-07T04:34:44.367Z,-0.8
2023-02-07T04:35:53.542Z,-0.7
2023-02-07T04:37:02.746Z,-0.6
2023-02-07T04:38:10.934Z,-0.4
2023-02-07T04:39:19.093Z,-0.3
2023-02-07T04:40:28.272Z,-0.5
2023-02-07T04:41:36.470Z,-0.4
2023-02-07T04:42:44.652Z,-0.4
2023-02-07T04:43:53.837Z,-0.6
2023-02-07T04:45:03.008Z,-0.7
2023-02-07T04:46:12.178Z,-0.6
2023-02-07T04:47:21.382Z,-0.5
2023-02-07T04:48:30.528Z,-0.4
2023-02-07T04:49:39.733Z,-0.6
2023-02-07T04:50:48.869Z,-0.8
2023-02-07T04:51:58.035Z,-1
2023-02-07T04:53:07.213Z,-1.1
2023-02-07T04:54:16.413Z,-1.3
2023-02-07T04:55:25.578Z,-1.4
2023-02-07T04:56:34.740Z,-1.4
2023-02-07T04:57:42.922Z,-1.4
2023-02-07T05:00:01.274Z,-1.2
2023-02-07T05:01:10.451Z,-1.3
2023-02-07T05:02:19.611Z,-1.4
2023-02-07T05:03:28.813Z,-1.4
2023-02-07T05:04:37.969Z,-1.5
2023-02-07T05:05:47.141Z,-1.4
2023-02-07T05:06:55.344Z,-1.4
2023-02-07T05:08:03.527Z,-1.5
2023-02-07T05:09:12.708Z,-1.6
2023-02-07T05:10:21.878Z,-1.7
2023-02-07T05:11:31.062Z,-1.7
2023-02-07T05:12:39.255Z,-1.6
2023-02-07T05:13:47.429Z,-1.7
2023-02-07T05:14:56.607Z,-1.8
2023-02-07T05:16:05.775Z,-1.8
2023-02-07T05:17:14.967Z,-1.9
2023-02-07T05:18:24.132Z,-1.9
2023-02-07T05:19:33.309Z,-2
2023-02-07T05:20:42.481Z,-2
2023-02-07T05:21:51.657Z,-2.1
2023-02-07T05:22:59.852Z,-2.1
2023-02-07T05:24:09.014Z,-2.2
2023-02-07T05:25:18.186Z,-2.3
2023-02-07T05:26:27.362Z,-2.5
2023-02-07T05:27:36.537Z,-2.6
2023-02-07T05:28:45.712Z,-2.6
2023-02-07T05:29:54.889Z,-2.6
2023-02-07T05:31:04.064Z,-2.6
2023-02-07T05:32:13.248Z,-2.6
2023-02-07T05:33:22.506Z,-2.7
2023-02-07T05:34:31.667Z,-2.6
2023-02-07T05:35:40.754Z,-2.6
2023-02-07T05:36:48.955Z,-2.6
2023-02-07T05:37:57.154Z,-2.6
2023-02-07T05:39:05.389Z,-2.6
2023-02-07T05:40:13.524Z,-2.6
2023-02-07T05:41:22.706Z,-2.6
2023-02-07T05:42:31.868Z,-2.6
2023-02-07T05:43:41.035Z,-2.5
2023-02-07T05:44:50.216Z,-2.4
2023-02-07T05:45:59.386Z,-2.4
2023-02-07T05:47:08.560Z,-2.3
2023-02-07T05:48:17.741Z,-2.3
2023-02-07T05:49:26.910Z,-2.2
2023-02-07T05:50:36.089Z,-2.2
2023-02-07T05:51:45.421Z,-2.2
2023-02-07T05:52:54.437Z,-2.2
2023-02-07T05:54:03.602Z,-2.2
2023-02-07T05:55:11.910Z,-2.3
2023-02-07T05:56:20.963Z,-2.3
2023-02-07T05:57:30.139Z,-2.3
2023-02-07T05:58:39.307Z,-2.4
2023-02-07T06:00:57.661Z,-2.4
2023-02-07T06:02:06.834Z,-2.4
2023-02-07T06:03:16.002Z,-2.4
2023-02-07T06:04:24.196Z,-2.4
2023-02-07T06:05:32.391Z,-2.4
2023-02-07T06:06:41.556Z,-2.4
2023-02-07T06:07:50.747Z,-2.4
2023-02-07T06:08:58.973Z,-2.4
2023-02-07T06:10:07.123Z,-2.5
2023-02-07T06:11:16.312Z,-2.5
2023-02-07T06:12:25.475Z,-2.5
2023-02-07T06:13:34.648Z,-2.5
2023-02-07T06:14:43.822Z,-2.5
2023-02-07T06:15:52.993Z,-2.5
2023-02-07T06:17:02.172Z,-2.5
2023-02-07T06:18:11.332Z,-2.5
2023-02-07T06:19:20.516Z,-2.5
2023-02-07T06:20:29.685Z,-2.5
2023-02-07T06:21:38.868Z,-2.4
2023-02-07T06:22:48.113Z,-2.4
2023-02-07T06:23:57.209Z,-2.4
2023-02-07T06:25:05.401Z,-2.4
2023-02-07T06:26:14.573Z,-2.4
2023-02-07T06:27:23.752Z,-2.4
2023-02-07T06:28:32.912Z,-2.5
2023-02-07T06:29:42.099Z,-2.4
2023-02-07T06:30:51.268Z,-2.5
2023-02-07T06:32:00.437Z,-2.5
2023-02-07T06:33:08.639Z,-2.5
2023-02-07T06:34:16.825Z,-2.5
2023-02-07T06:35:25.015Z,-2.5
2023-02-07T06:37:42.384Z,-2.5
2023-02-07T06:38:51.566Z,-2.5
2023-02-07T06:40:00.747Z,-2.6
2023-02-07T06:41:09.896Z,-2.8
2023-02-07T06:42:19.078Z,-2.8
2023-02-07T06:43:28.250Z,-2.8
2023-02-07T06:44:37.418Z,-2.8
2023-02-07T06:45:46.606Z,-2.7
2023-02-07T06:46:55.809Z,-2.8
2023-02-07T06:48:05.054Z,-2.7
2023-02-07T06:49:14.120Z,-2.6
2023-02-07T06:50:23.287Z,-2.5
2023-02-07T06:51:31.490Z,-2.5
2023-02-07T06:52:40.654Z,-2.5
2023-02-07T06:53:49.829Z,-2.5
2023-02-07T06:54:59.006Z,-2.5
2023-02-07T06:56:08.189Z,-2.5
2023-02-07T06:57:17.351Z,-2.5
2023-02-07T06:58:26.527Z,-2.4
2023-02-07T06:59:35.704Z,-2.2
2023-02-07T07:00:43.905Z,-2.2
2023-02-07T07:03:01.268Z,-2.4
2023-02-07T07:04:09.526Z,-2.4
2023-02-07T07:05:17.675Z,-2.4
2023-02-07T07:06:26.873Z,-2.5
2023-02-07T07:07:35.993Z,-2.5
2023-02-07T07:08:45.174Z,-2.5
2023-02-07T07:09:54.417Z,-2.4
2023-02-07T07:11:03.511Z,-2.1
2023-02-07T07:12:12.707Z,-1.7
2023-02-07T07:14:31.043Z,-1.5
2023-02-07T07:15:40.251Z,-1.3
2023-02-07T07:16:49.402Z,-1.3
2023-02-07T07:17:58.576Z,-1.4
2023-02-07T07:19:07.735Z,-1.2
2023-02-07T07:20:15.919Z,-1.4
2023-02-07T07:21:25.100Z,-1.7
2023-02-07T07:23:43.444Z,-1.9
2023-02-07T07:24:51.638Z,-1.9
2023-02-07T07:25:59.833Z,-2
2023-02-07T07:27:09.002Z,-2
2023-02-07T07:28:18.173Z,-2
2023-02-07T07:29:27.341Z,-2
2023-02-07T07:30:36.522Z,-2
2023-02-07T07:31:45.915Z,-2.1
2023-02-07T07:34:04.218Z,-2.1
2023-02-07T07:35:13.336Z,-2
2023-02-07T07:36:22.551Z,-1.9
2023-02-07T07:37:31.555Z,-1.8
2023-02-07T07:38:40.890Z,-1.6
2023-02-07T07:39:49.931Z,-1.6
2023-02-07T07:40:58.100Z,-1.6
2023-02-07T07:42:07.276Z,-1.6
2023-02-07T07:44:25.628Z,-1.5
2023-02-07T07:45:33.945Z,-1.3
2023-02-07T07:46:42.147Z,-1.2
2023-02-07T07:47:51.248Z,-0.9
2023-02-07T07:49:00.514Z,-0.9
2023-02-07T07:50:09.672Z,-0.9
2023-02-07T07:51:18.865Z,-0.8
2023-02-07T07:52:28.035Z,-0.8
2023-02-07T07:53:37.246Z,-0.8
2023-02-07T07:54:46.394Z,-0.6
2023-02-07T07:55:55.546Z,-0.5
2023-02-07T07:57:04.697Z,-0.5
2023-02-07T07:58:12.910Z,-0.6
2023-02-07T07:59:20.948Z,-0.3
2023-02-07T08:00:30.113Z,0
2023-02-07T08:01:39.311Z,0.5
2023-02-07T08:02:48.469Z,0.1
2023-02-07T08:03:57.781Z,0
2023-02-07T08:05:06.813Z,-0.1
2023-02-07T08:06:15.983Z,0
2023-02-07T08:07:25.155Z,0.1
2023-02-07T08:08:34.333Z,0.4
2023-02-07T08:09:43.605Z,0.7
2023-02-07T08:10:51.714Z,0.8
2023-02-07T08:12:00.013Z,0.6
2023-02-07T08:13:09.144Z,0.7
2023-02-07T08:14:18.236Z,0.7
2023-02-07T08:15:27.404Z,0.8
2023-02-07T08:16:36.580Z,1.1
2023-02-07T08:17:45.751Z,1.4
2023-02-07T08:18:54.932Z,1.9
2023-02-07T08:20:04.177Z,2.1
2023-02-07T08:21:13.406Z,2.1
2023-02-07T08:22:22.586Z,2.1
2023-02-07T08:23:31.634Z,2
2023-02-07T08:24:40.797Z,2.1
2023-02-07T08:25:50.009Z,1.9
2023-02-07T08:26:58.164Z,2.4
2023-02-07T08:28:07.320Z,3
2023-02-07T08:29:16.502Z,3.2
2023-02-07T08:30:25.666Z,3.4
2023-02-07T08:31:34.912Z,3.5
2023-02-07T08:32:44.026Z,3.7
2023-02-07T08:33:53.198Z,3.6
2023-02-07T08:35:01.467Z,3.4
2023-02-07T08:36:09.709Z,3.2
2023-02-07T08:37:17.756Z,3.4
2023-02-07T08:38:26.074Z,3.2
2023-02-07T08:39:35.155Z,2.9
2023-02-07T08:40:44.318Z,3.3
2023-02-07T08:41:53.511Z,3.5
2023-02-07T08:43:02.795Z,3.1
2023-02-07T08:44:11.877Z,3.1
2023-02-07T08:45:21.140Z,2.7
2023-02-07T08:46:30.222Z,2.4
2023-02-07T08:47:39.548Z,1.8
2023-02-07T08:48:48.647Z,1.7
2023-02-07T08:49:57.844Z,2.2
2023-02-07T08:51:07.034Z,2.3
2023-02-07T08:52:16.245Z,2.6
2023-02-07T08:53:24.284Z,2.9
2023-02-07T08:54:33.554Z,3.5
2023-02-07T08:55:42.765Z,3.8
2023-02-07T08:56:51.953Z,3.8
2023-02-07T08:58:00.915Z,3.2
2023-02-07T08:59:10.232Z,3.2
2023-02-07T09:00:19.257Z,3.5
2023-02-07T09:01:27.494Z,3.5
2023-02-07T09:02:35.649Z,3.4
2023-02-07T09:03:44.987Z,3.6
2023-02-07T09:04:53.209Z,3.6
2023-02-07T09:06:01.201Z,3.4
2023-02-07T09:07:10.390Z,4.2
2023-02-07T09:08:19.557Z,4.3
2023-02-07T09:09:28.720Z,4.3
2023-02-07T09:10:38.080Z,4.2
2023-02-07T09:11:47.194Z,3.7
2023-02-07T09:12:56.408Z,4.1
2023-02-07T09:14:04.430Z,4.3
2023-02-07T09:15:13.770Z,3.7
2023-02-07T09:16:22.786Z,3.9
2023-02-07T09:17:32.017Z,4.2
2023-02-07T09:18:41.259Z,4.7
2023-02-07T09:19:50.445Z,4.2
2023-02-07T09:20:59.679Z,4
2023-02-07T09:22:08.832Z,4
2023-02-07T09:23:17.976Z,4.2
2023-02-07T09:24:27.150Z,4.9
2023-02-07T09:25:36.163Z,5.5
2023-02-07T09:26:45.491Z,5.2
2023-02-07T09:27:54.675Z,5.4
2023-02-07T09:29:02.932Z,5.6
2023-02-07T09:30:12.005Z,5.7
2023-02-07T09:31:20.226Z,5.6
2023-02-07T09:32:29.373Z,5.7
2023-02-07T09:33:38.518Z,6.3
2023-02-07T09:34:47.576Z,5.9
2023-02-07T09:35:56.755Z,4.7
2023-02-07T09:37:05.925Z,4.5
2023-02-07T09:38:15.266Z,4.2
2023-02-07T09:39:24.273Z,4.1
2023-02-07T09:40:33.454Z,4.8
2023-02-07T09:41:42.804Z,4.9
2023-02-07T09:42:51.876Z,5.4
2023-02-07T09:44:01.149Z,6.1
2023-02-07T09:45:10.262Z,5.9
2023-02-07T09:46:18.397Z,5.9
2023-02-07T09:47:27.694Z,7
2023-02-07T09:48:36.850Z,6.8
2023-02-07T09:49:45.827Z,6.3
2023-02-07T09:50:55.205Z,5.6
2023-02-07T09:52:04.189Z,5.5
2023-02-07T09:53:12.378Z,6.1
2023-02-07T09:55:30.856Z,6
2023-02-07T09:56:39.134Z,6.5
2023-02-07T09:57:48.249Z,7.1
2023-02-07T09:58:57.394Z,6.6
2023-02-07T10:00:06.427Z,6.4
2023-02-07T10:01:15.786Z,6.4
2023-02-07T10:02:25.046Z,6.6
2023-02-07T10:03:34.119Z,6.1
2023-02-07T10:04:43.275Z,6.1
2023-02-07T10:05:52.459Z,6.4
2023-02-07T10:07:01.638Z,6.7
2023-02-07T10:08:10.776Z,7
2023-02-07T10:09:20.016Z,6.9
2023-02-07T10:10:28.975Z,6.7
2023-02-07T10:11:38.338Z,7.4
2023-02-07T10:12:47.325Z,6.8
2023-02-07T10:13:55.509Z,6.3
2023-02-07T10:15:04.685Z,6
2023-02-07T10:16:13.920Z,5.6
2023-02-07T10:17:23.172Z,5.9
2023-02-07T10:18:31.388Z,6.3
2023-02-07T10:19:40.490Z,6.6
2023-02-07T10:20:49.680Z,6.1
2023-02-07T10:21:58.761Z,6.7
2023-02-07T10:23:07.970Z,7.2
2023-02-07T10:24:16.285Z,6.9
2023-02-07T10:25:24.465Z,6.3
2023-02-07T10:26:33.644Z,6.8
2023-02-07T10:27:41.761Z,7
2023-02-07T10:28:49.952Z,7.8
2023-02-07T10:29:59.181Z,7.9
2023-02-07T10:31:08.342Z,7.6
2023-02-07T10:32:17.522Z,7.9
2023-02-07T10:33:26.677Z,8.3
2023-02-07T10:34:35.855Z,9.2
2023-02-07T10:35:45.058Z,9
2023-02-07T10:36:54.204Z,8.5
2023-02-07T10:38:03.383Z,8.3
2023-02-07T10:39:12.634Z,7.6
2023-02-07T10:40:21.572Z,7.4
2023-02-07T10:41:30.931Z,7.3
2023-02-07T10:42:40.076Z,6.7
2023-02-07T10:43:48.282Z,6.7
2023-02-07T10:44:57.356Z,6.7
2023-02-07T10:46:06.603Z,7.3
2023-02-07T10:47:15.624Z,7.6
2023-02-07T10:48:24.895Z,7.4
2023-02-07T10:49:34.086Z,7.1
2023-02-07T10:50:43.296Z,8
2023-02-07T10:51:51.441Z,8.3
2023-02-07T10:52:59.713Z,8.8
2023-02-07T10:54:08.903Z,9.2
2023-02-07T10:55:17.871Z,8.8
2023-02-07T10:56:27.331Z,9.7
2023-02-07T10:57:36.358Z,8.9
2023-02-07T10:58:45.384Z,8.4
2023-02-07T10:59:54.600Z,7.9
2023-02-07T11:01:03.883Z,7.6
2023-02-07T11:02:13.094Z,7.4
2023-02-07T11:03:22.269Z,8.2
2023-02-07T11:04:31.422Z,9.2
2023-02-07T11:05:40.484Z,8.7
2023-02-07T11:06:49.582Z,8.9
2023-02-07T11:07:57.897Z,8.7
2023-02-07T11:09:07.083Z,8.1
2023-02-07T11:10:16.292Z,8.3
2023-02-07T11:11:25.508Z,7.8
2023-02-07T11:12:34.712Z,8.2
2023-02-07T11:13:43.789Z,8.8
2023-02-07T11:14:53.023Z,9.1
2023-02-07T11:16:01.175Z,9.5
2023-02-07T11:17:09.188Z,10.3
2023-02-07T11:18:17.393Z,9.8
2023-02-07T11:19:25.757Z,9.6
2023-02-07T11:20:34.744Z,9.7
2023-02-07T11:21:43.930Z,8.5
2023-02-07T11:22:53.088Z,7.8
2023-02-07T11:24:02.521Z,8.5
2023-02-07T11:25:11.446Z,7.4
2023-02-07T11:26:20.815Z,6.5
2023-02-07T11:27:29.953Z,5.7
2023-02-07T11:28:39.143Z,5.9
2023-02-07T11:29:48.273Z,6.2
2023-02-07T11:30:57.323Z,6.4
2023-02-07T11:32:06.645Z,6.3
2023-02-07T11:33:15.645Z,6.3
2023-02-07T11:34:23.938Z,7.1
2023-02-07T11:35:33.141Z,7.2
2023-02-07T11:36:42.178Z,7.7
2023-02-07T11:37:51.534Z,8
2023-02-07T11:39:00.696Z,8.8
2023-02-07T11:40:09.860Z,9.1
2023-02-07T11:41:18.867Z,8.5
2023-02-07T11:42:27.062Z,8.3
2023-02-07T11:43:35.775Z,7.8
2023-02-07T11:44:44.601Z,7.5
2023-02-07T11:45:52.628Z,8
2023-02-07T11:47:00.965Z,7.5
2023-02-07T11:48:10.127Z,7.7
2023-02-07T11:49:19.316Z,8.3
2023-02-07T11:50:28.464Z,7.8
2023-02-07T11:51:37.715Z,7
2023-02-07T11:52:46.782Z,7.6
2023-02-07T11:53:55.992Z,8.9
2023-02-07T11:55:05.188Z,9.7
2023-02-07T11:56:14.306Z,8
2023-02-07T11:57:23.548Z,7.6
2023-02-07T11:58:32.526Z,8.4
2023-02-07T11:59:41.899Z,9.3
2023-02-07T12:00:51.077Z,9.9
2023-02-07T12:01:59.258Z,10.5
2023-02-07T12:03:08.232Z,10.2
2023-02-07T12:04:17.564Z,10.4
2023-02-07T12:05:26.725Z,9.8
2023-02-07T12:06:35.971Z,9.5
2023-02-07T12:07:45.118Z,9.7
2023-02-07T12:08:54.100Z,10
2023-02-07T12:10:02.334Z,10.1
2023-02-07T12:11:10.675Z,10.2
2023-02-07T12:12:19.669Z,9.2
2023-02-07T12:13:28.985Z,9.3
2023-02-07T12:14:38.012Z,9.9
2023-02-07T12:15:47.168Z,10.1
2023-02-07T12:16:56.534Z,10.1
2023-02-07T12:18:05.683Z,9
2023-02-07T12:19:14.698Z,9.9
2023-02-07T12:20:23.949Z,9.8
2023-02-07T12:21:33.187Z,10
2023-02-07T12:22:42.366Z,9.4
2023-02-07T12:23:51.497Z,9.1
2023-02-07T12:25:00.730Z,9.6
2023-02-07T12:26:08.934Z,10.3
2023-02-07T12:27:18.014Z,10.4
2023-02-07T12:28:27.231Z,10.8
2023-02-07T12:29:36.261Z,9.5
2023-02-07T12:30:45.584Z,9.7
2023-02-07T12:31:54.810Z,10.2
2023-02-07T12:33:03.769Z,9.8
2023-02-07T12:34:12.147Z,10.5
2023-02-07T12:35:20.336Z,10.5
2023-02-07T12:36:28.510Z,10
2023-02-07T12:37:36.600Z,9.1
2023-02-07T12:38:45.711Z,9.2
2023-02-07T12:39:55.098Z,9.3
2023-02-07T12:41:04.212Z,9.3
2023-02-07T12:42:13.447Z,9.7
2023-02-07T12:43:22.562Z,9.6
2023-02-07T12:44:31.739Z,10
2023-02-07T12:45:40.844Z,9.8
2023-02-07T12:46:49.920Z,10.2
2023-02-07T12:47:59.139Z,9.5
2023-02-07T12:49:08.334Z,9.4
2023-02-07T12:50:17.551Z,9.3
2023-02-07T12:51:26.828Z,9.4
2023-02-07T12:52:35.012Z,9.3
2023-02-07T12:53:44.101Z,9.6
2023-02-07T12:54:53.134Z,9.9
2023-02-07T12:56:02.547Z,9.9
2023-02-07T12:57:11.649Z,9.5
2023-02-07T12:58:20.757Z,9.3
2023-02-07T12:59:29.825Z,9.3
2023-02-07T13:00:38.183Z,9.2
2023-02-07T13:01:46.330Z,9.3
2023-02-07T13:02:55.382Z,8.5
2023-02-07T13:04:04.719Z,8.6
2023-02-07T13:05:12.907Z,9.7
2023-02-07T13:06:22.086Z,10.5
2023-02-07T13:07:31.245Z,11.1
2023-02-07T13:08:40.424Z,11.2
2023-02-07T13:09:49.457Z,11.6
2023-02-07T13:10:58.841Z,10.4
2023-02-07T13:12:07.988Z,10.3
2023-02-07T13:13:17.146Z,10.2
2023-02-07T13:14:26.280Z,9.5
2023-02-07T13:15:35.457Z,9.8
2023-02-07T13:16:44.627Z,9.7
2023-02-07T13:17:53.800Z,10
2023-02-07T13:19:02.975Z,9.8
2023-02-07T13:20:11.007Z,9.1
2023-02-07T13:21:20.314Z,8.9
2023-02-07T13:22:29.511Z,9.4
2023-02-07T13:23:38.562Z,9.5
2023-02-07T13:24:46.698Z,10.8
2023-02-07T13:25:54.974Z,11.4
2023-02-07T13:27:04.217Z,9.8
2023-02-07T13:28:12.250Z,9.3
2023-02-07T13:29:20.607Z,8.5
2023-02-07T13:30:29.786Z,8.5
2023-02-07T13:31:38.784Z,8
2023-02-07T13:32:48.041Z,7.5
2023-02-07T13:33:57.352Z,7.7
2023-02-07T13:35:06.318Z,7.7
2023-02-07T13:36:15.668Z,8.2
2023-02-07T13:37:24.813Z,8.4
2023-02-07T13:38:34.000Z,7.8
2023-02-07T13:39:43.213Z,7.8
2023-02-07T13:40:52.395Z,7.9
2023-02-07T13:42:01.540Z,8
2023-02-07T13:43:10.664Z,8.4
2023-02-07T13:44:18.872Z,8.8
2023-02-07T13:45:28.067Z,8.4
2023-02-07T13:46:37.241Z,8.6
2023-02-07T13:47:46.261Z,9.3
2023-02-07T13:48:55.572Z,10.3
2023-02-07T13:50:04.782Z,10.9
2023-02-07T13:51:13.782Z,11.1
2023-02-07T13:52:22.110Z,9.9
2023-02-07T13:53:30.295Z,9.1
2023-02-07T13:54:38.328Z,9.5
2023-02-07T13:55:46.514Z,9.5
2023-02-07T13:56:55.844Z,9.4
2023-02-07T13:58:05.008Z,10
2023-02-07T13:59:14.198Z,9.9
2023-02-07T14:00:23.359Z,9.7
2023-02-07T14:01:32.545Z,9.9
2023-02-07T14:02:41.684Z,10.3
2023-02-07T14:03:50.933Z,9.3
2023-02-07T14:05:00.076Z,8.7
2023-02-07T14:06:09.233Z,8.5
2023-02-07T14:07:18.415Z,9
2023-02-07T14:08:27.596Z,9.6
2023-02-07T14:09:36.832Z,10.2
2023-02-07T14:10:45.032Z,10.9
2023-02-07T14:11:54.088Z,11.6
2023-02-07T14:13:03.100Z,11.1
2023-02-07T14:14:12.438Z,10.8
2023-02-07T14:15:21.614Z,10.6
2023-02-07T14:16:30.748Z,11.6
2023-02-07T14:17:40.035Z,11.4
2023-02-07T14:18:48.205Z,10.5
2023-02-07T14:19:56.244Z,9.3
2023-02-07T14:21:04.382Z,9.3
2023-02-07T14:22:12.734Z,9.7
2023-02-07T14:23:21.828Z,9.2
2023-02-07T14:24:31.083Z,9.3
2023-02-07T14:25:40.063Z,9
2023-02-07T14:26:49.448Z,9
2023-02-07T14:27:58.581Z,9.2
2023-02-07T14:29:07.588Z,9
2023-02-07T14:30:16.764Z,8.9
2023-02-07T14:31:25.962Z,9
2023-02-07T14:32:35.245Z,9.1
2023-02-07T14:33:44.427Z,9
2023-02-07T14:34:53.581Z,8.8
2023-02-07T14:36:02.616Z,8.9
2023-02-07T14:37:10.929Z,9.2
2023-02-07T14:38:20.091Z,9.2
2023-02-07T14:39:29.307Z,8.6
2023-02-07T14:40:38.530Z,8.1
2023-02-07T14:41:47.620Z,8.4
2023-02-07T14:42:56.659Z,8.5
2023-02-07T14:44:05.950Z,9.1
2023-02-07T14:45:14.200Z,10
2023-02-07T14:46:22.377Z,10.6
2023-02-07T14:47:30.586Z,10
2023-02-07T14:48:38.730Z,9.7
2023-02-07T14:49:47.929Z,9.5
2023-02-07T14:50:56.986Z,9.4
2023-02-07T14:52:06.251Z,9.7
2023-02-07T14:53:15.392Z,10.4
2023-02-07T14:54:24.472Z,10.7
2023-02-07T14:55:33.783Z,10.3
2023-02-07T14:56:43.010Z,9.5
2023-02-07T14:57:52.210Z,9
2023-02-07T14:59:01.350Z,9.4
2023-02-07T15:00:10.506Z,9.1
2023-02-07T15:01:19.621Z,8.4
2023-02-07T15:02:28.696Z,7.8
2023-02-07T15:03:36.889Z,7.6
2023-02-07T15:04:46.038Z,7.8
2023-02-07T15:05:55.212Z,7.4
2023-02-07T15:07:04.517Z,6.8
2023-02-07T15:08:13.721Z,6.7
2023-02-07T15:09:22.762Z,6.8
2023-02-07T15:10:32.033Z,6.9
2023-02-07T15:11:40.115Z,6.7
2023-02-07T15:12:48.713Z,6.8
2023-02-07T15:13:57.488Z,7.1
2023-02-07T15:15:05.836Z,7.2
2023-02-07T15:16:13.837Z,7.4
2023-02-07T15:17:23.189Z,7.5
2023-02-07T15:18:32.406Z,6.9
2023-02-07T15:19:41.495Z,6.8
2023-02-07T15:21:59.891Z,6.6
2023-02-07T15:23:09.029Z,6.9
2023-02-07T15:24:18.176Z,6.9
2023-02-07T15:25:27.410Z,6.8
2023-02-07T15:26:36.392Z,6.7
2023-02-07T15:27:45.577Z,6.9
2023-02-07T15:28:54.898Z,7.2
2023-02-07T15:30:03.891Z,7
2023-02-07T15:31:12.272Z,6.9
2023-02-07T15:32:21.300Z,6.8
2023-02-07T15:33:30.501Z,6.8
2023-02-07T15:34:39.792Z,6.5
2023-02-07T15:35:49.031Z,6.2
2023-02-07T15:36:58.074Z,6.2
2023-02-07T15:38:07.290Z,6.3
2023-02-07T15:39:16.455Z,6.1
2023-02-07T15:40:24.677Z,5.8
2023-02-07T15:41:32.852Z,5.7
2023-02-07T15:42:42.027Z,5.6
2023-02-07T15:43:50.159Z,5.6
2023-02-07T15:44:58.428Z,5.6
2023-02-07T15:46:07.605Z,5.4
2023-02-07T15:47:16.760Z,5.4
2023-02-07T15:48:25.919Z,5.3
2023-02-07T15:49:35.086Z,5.2
2023-02-07T15:50:44.103Z,5.1
2023-02-07T15:51:53.388Z,5.1
2023-02-07T15:53:02.444Z,5
2023-02-07T15:54:11.802Z,4.9
2023-02-07T15:55:20.943Z,4.9